createdAt,value
2022-07-30T00:02:13.051Z,3.83
2022-07-30T00:04:41.041Z,3.27
2022-07-30T00:07:09.045Z,2.70
2022-07-30T00:09:36.989Z,2.90
2022-07-30T00:12:05.511Z,2.73
2022-07-30T00:14:34.874Z,2.90
2022-07-30T00:17:05.515Z,2.50
2022-07-30T00:19:33.783Z,2.70
2022-07-30T00:22:01.747Z,3.00
2022-07-30T00:24:29.927Z,3.03
2022-07-30T00:26:58.080Z,3.17
2022-07-30T00:29:26.633Z,3.00
2022-07-30T00:31:54.899Z,3.23
2022-07-30T00:34:26.655Z,3.00
2022-07-30T00:36:54.661Z,3.40
2022-07-30T00:39:22.597Z,2.50
2022-07-30T00:41:58.550Z,2.37
2022-07-30T00:44:27.013Z,2.70
2022-07-30T00:46:55.428Z,3.17
2022-07-30T00:49:24.917Z,3.17
2022-07-30T00:51:53.435Z,2.90
2022-07-30T00:54:22.237Z,2.60
2022-07-30T00:56:50.648Z,3.17
2022-07-30T00:59:18.631Z,2.37
2022-07-30T01:01:46.677Z,2.67
2022-07-30T01:04:14.657Z,3.43
2022-07-30T01:06:43.945Z,3.07
2022-07-30T01:09:11.981Z,2.90
2022-07-30T01:11:41.488Z,3.07
2022-07-30T01:14:11.298Z,3.10
2022-07-30T01:16:42.836Z,3.30
2022-07-30T01:19:43.768Z,3.47
2022-07-30T01:22:21.864Z,4.20
2022-07-30T01:24:57.784Z,2.93
2022-07-30T01:27:29.851Z,3.10
2022-07-30T01:29:59.583Z,4.00
2022-07-30T01:32:28.367Z,4.10
2022-07-30T01:34:59.370Z,3.80
2022-07-30T01:37:29.025Z,2.87
2022-07-30T01:39:57.641Z,3.77
2022-07-30T01:42:29.832Z,3.70
2022-07-30T01:44:59.690Z,4.57
2022-07-30T01:47:30.357Z,4.20
2022-07-30T01:50:00.200Z,2.83
2022-07-30T01:52:31.047Z,3.50
2022-07-30T01:55:01.763Z,3.47
2022-07-30T01:57:32.931Z,3.70
2022-07-30T02:00:08.169Z,3.50
2022-07-30T02:02:37.008Z,3.80
2022-07-30T02:05:05.989Z,4.00
2022-07-30T02:07:38.894Z,4.10
2022-07-30T02:10:12.546Z,3.47
2022-07-30T02:12:47.308Z,4.33
2022-07-30T02:15:22.287Z,4.83
2022-07-30T02:17:57.449Z,3.90
2022-07-30T02:20:29.282Z,3.70
2022-07-30T02:23:03.523Z,7.30
2022-07-30T02:25:34.882Z,7.63
2022-07-30T02:28:09.344Z,4.60
2022-07-30T02:30:40.755Z,4.10
2022-07-30T02:33:12.722Z,4.30
2022-07-30T02:35:42.239Z,5.13
2022-07-30T02:38:13.126Z,4.93
2022-07-30T02:40:42.977Z,4.47
2022-07-30T02:43:15.263Z,4.10
2022-07-30T02:45:45.513Z,4.57
2022-07-30T02:48:35.123Z,5.97
2022-07-30T02:51:05.412Z,4.10
2022-07-30T02:53:34.036Z,9.57
2022-07-30T02:56:03.103Z,4.50
2022-07-30T02:58:33.642Z,4.50
2022-07-30T03:01:03.529Z,7.63
2022-07-30T03:03:33.041Z,4.87
2022-07-30T03:06:02.630Z,5.40
2022-07-30T03:08:32.585Z,4.87
2022-07-30T03:11:01.602Z,6.70
2022-07-30T03:13:29.827Z,4.30
2022-07-30T03:16:02.111Z,4.10
2022-07-30T03:18:36.098Z,4.60
2022-07-30T03:21:05.689Z,4.67
2022-07-30T03:23:37.052Z,5.07
2022-07-30T03:26:08.562Z,3.87
2022-07-30T03:28:40.095Z,4.63
2022-07-30T03:31:10.611Z,4.73
2022-07-30T03:33:40.823Z,4.77
2022-07-30T03:36:10.151Z,4.83
2022-07-30T03:38:38.802Z,4.53
2022-07-30T03:41:08.876Z,4.10
2022-07-30T03:43:41.160Z,4.00
2022-07-30T03:46:11.627Z,4.50
2022-07-30T03:48:40.620Z,4.27
2022-07-30T03:51:10.316Z,3.90
2022-07-30T03:53:38.799Z,4.80
2022-07-30T03:56:07.996Z,4.37
2022-07-30T03:58:38.056Z,3.80
2022-07-30T04:01:06.156Z,4.50
2022-07-30T04:03:35.788Z,3.87
2022-07-30T04:06:03.780Z,4.33
2022-07-30T04:08:31.797Z,4.20
2022-07-30T04:10:59.828Z,4.37
2022-07-30T04:13:27.726Z,3.97
2022-07-30T04:16:37.179Z,4.00
2022-07-30T04:18:55.785Z,4.40
2022-07-30T04:21:26.838Z,3.90
2022-07-30T04:24:03.959Z,3.30
2022-07-30T04:26:34.813Z,4.37
2022-07-30T04:29:04.017Z,3.60
2022-07-30T04:31:39.994Z,4.50
2022-07-30T04:34:14.883Z,4.13
2022-07-30T04:36:43.915Z,4.60
2022-07-30T04:39:12.133Z,3.67
2022-07-30T04:41:48.997Z,4.50
2022-07-30T04:44:19.561Z,3.93
2022-07-30T04:46:47.812Z,5.17
2022-07-30T04:49:18.819Z,4.60
2022-07-30T04:51:47.859Z,4.80
2022-07-30T04:54:17.046Z,5.00
2022-07-30T04:56:53.655Z,4.93
2022-07-30T04:59:25.140Z,12.53
2022-07-30T05:01:54.504Z,6.93
2022-07-30T05:04:24.923Z,4.73
2022-07-30T05:06:54.008Z,4.40
2022-07-30T05:09:22.416Z,5.03
2022-07-30T05:11:53.722Z,4.57
2022-07-30T05:14:22.392Z,4.33
2022-07-30T05:16:50.436Z,5.07
2022-07-30T05:19:21.277Z,7.90
2022-07-30T05:21:50.669Z,4.60
2022-07-30T05:24:19.119Z,4.40
2022-07-30T05:26:47.460Z,4.60
2022-07-30T05:29:19.637Z,5.27
2022-07-30T05:31:48.860Z,4.20
2022-07-30T05:34:17.130Z,5.23
2022-07-30T05:36:46.150Z,5.03
2022-07-30T05:39:16.342Z,6.70
2022-07-30T05:41:44.521Z,4.70
2022-07-30T05:44:19.596Z,4.53
2022-07-30T05:46:50.094Z,4.97
2022-07-30T05:49:18.153Z,5.03
2022-07-30T05:51:46.973Z,8.10
2022-07-30T05:54:16.325Z,5.07
2022-07-30T05:56:44.238Z,5.23
2022-07-30T05:59:12.164Z,4.97
2022-07-30T06:01:40.174Z,5.40
2022-07-30T06:04:08.252Z,5.57
2022-07-30T06:06:36.182Z,5.20
2022-07-30T06:09:04.203Z,6.30
2022-07-30T06:11:33.484Z,7.90
2022-07-30T06:14:01.422Z,5.30
2022-07-30T06:16:29.411Z,5.20
2022-07-30T06:18:57.313Z,4.17
2022-07-30T06:21:25.285Z,5.20
2022-07-30T06:23:53.274Z,5.20
2022-07-30T06:26:28.283Z,5.83
2022-07-30T06:28:57.827Z,5.23
2022-07-30T06:31:25.913Z,5.80
2022-07-30T06:33:54.038Z,5.43
2022-07-30T06:36:22.422Z,6.07
2022-07-30T06:38:50.389Z,6.10
2022-07-30T06:41:18.381Z,4.93
2022-07-30T06:43:46.385Z,6.60
2022-07-30T06:46:15.738Z,5.00
2022-07-30T06:48:43.782Z,4.90
2022-07-30T06:51:11.825Z,5.60
2022-07-30T06:53:42.709Z,5.23
2022-07-30T06:56:11.033Z,5.20
2022-07-30T06:58:39.159Z,6.77
2022-07-30T07:01:11.300Z,5.60
2022-07-30T07:03:41.174Z,5.30
2022-07-30T07:06:09.824Z,4.80
2022-07-30T07:08:38.289Z,6.40
2022-07-30T07:11:06.552Z,4.83
2022-07-30T07:13:34.559Z,5.63
2022-07-30T07:16:02.760Z,4.83
2022-07-30T07:18:30.841Z,5.93
2022-07-30T07:21:00.138Z,5.60
2022-07-30T07:23:39.809Z,5.17
2022-07-30T07:26:11.706Z,5.17
2022-07-30T07:28:41.051Z,5.17
2022-07-30T07:31:09.598Z,6.70
2022-07-30T07:33:38.235Z,4.10
2022-07-30T07:36:07.990Z,4.10
2022-07-30T07:38:36.581Z,4.23
2022-07-30T07:41:05.354Z,4.87
2022-07-30T07:43:33.342Z,4.93
2022-07-30T07:46:01.395Z,4.03
2022-07-30T07:48:29.418Z,4.70
2022-07-30T07:51:00.343Z,4.77
2022-07-30T07:53:30.082Z,4.60
2022-07-30T07:56:00.581Z,4.80
2022-07-30T07:58:29.495Z,7.83
2022-07-30T08:00:59.126Z,4.63
2022-07-30T08:03:27.077Z,5.10
2022-07-30T08:06:06.026Z,6.03
2022-07-30T08:08:37.505Z,4.53
2022-07-30T08:11:07.031Z,4.63
2022-07-30T08:13:49.335Z,6.60
2022-07-30T08:16:21.334Z,5.07
2022-07-30T08:18:49.325Z,4.10
2022-07-30T08:21:17.307Z,5.30
2022-07-30T08:23:46.585Z,4.13
2022-07-30T08:26:14.535Z,4.23
2022-07-30T08:28:43.090Z,3.87
2022-07-30T08:31:11.079Z,3.67
2022-07-30T08:33:39.009Z,3.53
2022-07-30T08:36:09.469Z,3.40
2022-07-30T08:38:38.321Z,2.90
2022-07-30T08:41:07.943Z,4.00
2022-07-30T08:43:37.497Z,3.63
2022-07-30T08:46:08.782Z,3.60
2022-07-30T08:48:37.192Z,3.60
2022-07-30T08:51:07.007Z,2.90
2022-07-30T08:53:35.530Z,3.20
2022-07-30T08:56:04.038Z,4.30
2022-07-30T08:58:35.312Z,5.20
2022-07-30T09:01:04.842Z,3.00
2022-07-30T09:03:33.659Z,3.90
2022-07-30T09:06:02.886Z,3.80
2022-07-30T09:08:30.861Z,3.60
2022-07-30T09:10:59.271Z,3.03
2022-07-30T09:13:29.293Z,2.80
2022-07-30T09:15:58.885Z,3.37
2022-07-30T09:18:32.673Z,3.10
2022-07-30T09:21:02.404Z,2.63
2022-07-30T09:23:30.490Z,3.10
2022-07-30T09:26:00.855Z,3.70
2022-07-30T09:28:31.368Z,3.77
2022-07-30T09:31:01.753Z,3.00
2022-07-30T09:33:35.716Z,3.00
2022-07-30T09:36:05.803Z,3.23
2022-07-30T09:38:44.473Z,3.20
2022-07-30T09:41:29.363Z,3.97
2022-07-30T09:44:04.611Z,3.03
2022-07-30T09:46:47.073Z,2.57
2022-07-30T09:49:16.692Z,2.90
2022-07-30T09:51:55.639Z,3.53
2022-07-30T09:54:52.129Z,2.80
2022-07-30T09:57:25.995Z,2.50
2022-07-30T09:59:56.663Z,2.53
2022-07-30T10:02:33.010Z,2.80
2022-07-30T10:05:14.499Z,2.53
2022-07-30T10:07:51.318Z,4.17
2022-07-30T10:10:21.826Z,2.63
2022-07-30T10:12:57.894Z,2.50
2022-07-30T10:15:29.020Z,2.80
2022-07-30T10:18:00.510Z,2.40
2022-07-30T10:20:29.301Z,2.83
2022-07-30T10:22:58.157Z,2.80
2022-07-30T10:25:28.534Z,3.17
2022-07-30T10:27:58.052Z,3.00
2022-07-30T10:30:28.281Z,2.73
2022-07-30T10:33:01.396Z,3.00
2022-07-30T10:35:34.315Z,2.70
2022-07-30T10:38:13.641Z,2.80
2022-07-30T10:40:51.365Z,2.30
2022-07-30T10:43:51.823Z,2.53
2022-07-30T10:46:30.234Z,2.90
2022-07-30T10:49:12.524Z,2.47
2022-07-30T10:51:48.880Z,2.80
2022-07-30T10:54:44.667Z,2.67
2022-07-30T10:57:23.120Z,2.90
2022-07-30T11:00:12.010Z,3.53
2022-07-30T11:02:40.200Z,2.70
2022-07-30T11:05:45.246Z,2.40
2022-07-30T11:08:36.130Z,2.67
2022-07-30T11:11:59.241Z,2.80
2022-07-30T11:14:10.980Z,2.80
2022-07-30T11:17:00.006Z,2.20
2022-07-30T11:19:56.354Z,2.67
2022-07-30T11:22:27.136Z,2.17
2022-07-30T11:24:56.477Z,2.30
2022-07-30T11:27:41.989Z,2.53
2022-07-30T11:30:34.872Z,2.70
2022-07-30T11:33:32.110Z,1.90
2022-07-30T11:36:12.805Z,2.07
2022-07-30T11:39:05.402Z,2.30
2022-07-30T11:41:35.314Z,2.27
2022-07-30T11:44:28.933Z,2.50
2022-07-30T11:46:57.295Z,2.77
2022-07-30T11:49:25.417Z,2.50
2022-07-30T11:51:53.602Z,4.43
2022-07-30T11:54:22.902Z,2.80
2022-07-30T11:56:52.663Z,2.30
2022-07-30T11:59:20.686Z,2.53
2022-07-30T12:01:52.773Z,2.90
2022-07-30T12:04:21.143Z,2.33
2022-07-30T12:06:50.033Z,2.00
2022-07-30T12:09:29.206Z,6.27
2022-07-30T12:11:58.297Z,2.80
2022-07-30T12:14:26.450Z,2.20
2022-07-30T12:16:55.971Z,3.97
2022-07-30T12:19:23.983Z,2.40
2022-07-30T12:21:53.529Z,2.30
2022-07-30T12:24:27.325Z,2.43
2022-07-30T12:27:06.454Z,2.10
2022-07-30T12:29:37.601Z,2.40
2022-07-30T12:32:06.466Z,2.60
2022-07-30T12:34:34.443Z,2.70
2022-07-30T12:37:11.481Z,2.43
2022-07-30T12:39:40.858Z,3.00
2022-07-30T12:42:18.656Z,3.90
2022-07-30T12:44:49.285Z,2.20
2022-07-30T12:47:23.881Z,2.30
2022-07-30T12:49:53.316Z,1.90
2022-07-30T12:52:28.712Z,2.10
2022-07-30T12:55:08.709Z,2.30
2022-07-30T12:57:56.362Z,2.03
2022-07-30T13:00:25.945Z,1.90
2022-07-30T13:02:54.582Z,2.70
2022-07-30T13:05:23.044Z,2.00
2022-07-30T13:07:55.416Z,2.03
2022-07-30T13:10:30.473Z,2.10
2022-07-30T13:12:59.389Z,1.80
2022-07-30T13:15:27.472Z,2.37
2022-07-30T13:17:55.403Z,2.00
2022-07-30T13:20:23.899Z,2.13
2022-07-30T13:22:51.857Z,2.13
2022-07-30T13:25:19.784Z,2.60
2022-07-30T13:27:49.378Z,1.90
2022-07-30T13:30:17.304Z,2.40
2022-07-30T13:32:45.211Z,1.93
2022-07-30T13:35:13.196Z,4.53
2022-07-30T13:37:41.101Z,1.80
2022-07-30T13:40:10.275Z,2.27
2022-07-30T13:42:38.176Z,1.90
2022-07-30T13:45:08.701Z,2.00
2022-07-30T13:47:36.872Z,1.90
2022-07-30T13:50:05.442Z,1.67
2022-07-30T13:52:33.747Z,2.13
2022-07-30T13:55:01.763Z,1.63
2022-07-30T13:57:29.713Z,1.80
2022-07-30T13:59:57.674Z,2.30
2022-07-30T14:02:26.957Z,2.07
2022-07-30T14:04:56.146Z,2.90
2022-07-30T14:07:24.255Z,1.93
2022-07-30T14:09:54.544Z,1.60
2022-07-30T14:12:22.702Z,1.60
2022-07-30T14:14:50.686Z,1.97
2022-07-30T14:17:18.647Z,1.50
2022-07-30T14:19:48.126Z,1.50
2022-07-30T14:22:16.070Z,1.70
2022-07-30T14:24:44.016Z,1.40
2022-07-30T14:27:11.942Z,1.43
2022-07-30T14:29:40.031Z,1.30
2022-07-30T14:32:08.156Z,1.30
2022-07-30T14:34:36.088Z,2.17
2022-07-30T14:37:05.727Z,1.70
2022-07-30T14:39:35.498Z,1.40
2022-07-30T14:42:03.550Z,1.40
2022-07-30T14:44:31.495Z,1.70
2022-07-30T14:46:59.571Z,2.07
2022-07-30T14:49:27.874Z,1.17
2022-07-30T14:51:56.168Z,1.83
2022-07-30T14:54:25.539Z,18.80
2022-07-30T14:56:58.035Z,2.07
2022-07-30T14:59:27.354Z,1.33
2022-07-30T15:01:55.617Z,1.70
2022-07-30T15:04:23.902Z,1.47
2022-07-30T15:06:52.048Z,1.40
2022-07-30T15:09:20.713Z,1.13
2022-07-30T15:12:08.304Z,1.50
2022-07-30T15:14:40.038Z,1.40
2022-07-30T15:17:08.231Z,2.03
2022-07-30T15:19:36.290Z,2.07
2022-07-30T15:22:05.414Z,1.50
2022-07-30T15:24:33.859Z,1.40
2022-07-30T15:27:03.172Z,1.43
2022-07-30T15:29:32.014Z,1.50
2022-07-30T15:32:01.562Z,1.57
2022-07-30T15:34:34.034Z,1.67
2022-07-30T15:37:02.543Z,1.60
2022-07-30T15:39:32.758Z,1.30
2022-07-30T15:42:03.045Z,1.50
2022-07-30T15:44:34.106Z,2.20
2022-07-30T15:47:02.453Z,1.53
2022-07-30T15:49:30.619Z,1.63
2022-07-30T15:52:00.119Z,1.40
2022-07-30T15:54:28.406Z,2.80
2022-07-30T15:57:01.267Z,1.80
2022-07-30T15:59:31.764Z,1.90
2022-07-30T16:01:59.904Z,2.77
2022-07-30T16:04:31.615Z,2.00
2022-07-30T16:07:00.589Z,1.93
2022-07-30T16:09:28.730Z,5.20
2022-07-30T16:11:56.910Z,1.70
2022-07-30T16:14:26.589Z,1.70
2022-07-30T16:16:56.181Z,1.60
2022-07-30T16:19:24.187Z,2.10
2022-07-30T16:21:52.722Z,3.10
2022-07-30T16:24:22.398Z,1.63
2022-07-30T16:26:50.698Z,1.53
2022-07-30T16:29:18.960Z,1.63
2022-07-30T16:31:47.688Z,1.40
2022-07-30T16:34:17.356Z,1.50
2022-07-30T16:36:51.290Z,1.67
2022-07-30T16:39:19.192Z,1.47
2022-07-30T16:41:47.091Z,1.40
2022-07-30T16:47:07.085Z,5.47
2022-07-30T16:49:37.815Z,1.80
2022-07-30T16:52:06.355Z,2.00
2022-07-30T16:54:34.390Z,1.70
2022-07-30T16:57:04.011Z,1.90
2022-07-30T16:59:38.791Z,1.50
2022-07-30T17:02:10.319Z,2.27
2022-07-30T17:04:39.721Z,1.80
2022-07-30T17:07:07.883Z,1.50
2022-07-30T17:09:36.854Z,1.83
2022-07-30T17:12:12.273Z,1.40
2022-07-30T17:14:41.432Z,2.00
2022-07-30T17:17:13.729Z,2.23
2022-07-30T17:19:44.001Z,2.97
2022-07-30T17:22:12.414Z,1.90
2022-07-30T17:24:40.409Z,1.63
2022-07-30T17:27:08.359Z,1.90
2022-07-30T17:29:49.938Z,1.73
2022-07-30T17:32:19.319Z,2.03
2022-07-30T17:34:49.476Z,2.27
2022-07-30T17:37:17.390Z,1.93
2022-07-30T17:40:26.657Z,1.77
2022-07-30T17:42:33.357Z,2.07
2022-07-30T17:45:02.167Z,1.30
2022-07-30T17:47:30.095Z,1.90
2022-07-30T17:49:59.385Z,2.20
2022-07-30T17:52:27.432Z,1.73
2022-07-30T17:54:55.604Z,2.03
2022-07-30T17:57:23.905Z,1.90
2022-07-30T17:59:52.082Z,1.50
2022-07-30T18:02:27.698Z,1.77
2022-07-30T18:04:57.070Z,2.17
2022-07-30T18:07:26.502Z,1.60
2022-07-30T18:09:55.011Z,1.93
2022-07-30T18:12:23.310Z,1.60
2022-07-30T18:14:51.534Z,1.67
2022-07-30T18:17:19.531Z,4.53
2022-07-30T18:19:47.507Z,2.13
2022-07-30T18:22:16.470Z,2.10
2022-07-30T18:25:00.554Z,2.90
2022-07-30T18:27:29.764Z,2.07
2022-07-30T18:29:58.118Z,1.90
2022-07-30T18:32:26.135Z,1.90
2022-07-30T18:34:54.178Z,1.87
2022-07-30T18:37:22.090Z,1.67
2022-07-30T18:39:50.100Z,1.63
2022-07-30T18:42:19.663Z,1.30
2022-07-30T18:44:47.760Z,2.77
2022-07-30T18:47:15.937Z,1.47
2022-07-30T18:49:44.094Z,1.40
2022-07-30T18:52:12.347Z,1.70
2022-07-30T18:54:40.250Z,1.40
2022-07-30T18:57:13.894Z,1.63
2022-07-30T18:59:43.870Z,1.83
2022-07-30T19:02:12.047Z,1.40
2022-07-30T19:04:40.007Z,1.27
2022-07-30T19:07:08.252Z,1.37
2022-07-30T19:09:36.283Z,2.10
2022-07-30T19:12:04.956Z,1.50
2022-07-30T19:14:33.339Z,1.53
2022-07-30T19:17:02.590Z,1.40
2022-07-30T19:19:30.589Z,1.50
2022-07-30T19:21:58.922Z,1.93
2022-07-30T19:24:27.676Z,1.60
2022-07-30T19:26:56.094Z,1.60
2022-07-30T19:29:24.205Z,4.00
2022-07-30T19:31:52.103Z,1.53
2022-07-30T19:34:21.391Z,1.57
2022-07-30T19:36:49.624Z,1.60
2022-07-30T19:39:21.507Z,1.83
2022-07-30T19:41:53.023Z,1.80
2022-07-30T19:44:21.038Z,1.80
2022-07-30T19:46:51.581Z,1.97
2022-07-30T19:49:21.849Z,1.50
2022-07-30T19:52:10.832Z,1.63
2022-07-30T19:54:37.985Z,1.53
2022-07-30T19:57:06.033Z,1.80
2022-07-30T19:59:45.452Z,1.70
2022-07-30T20:02:22.562Z,4.10
2022-07-30T20:04:52.061Z,2.00
2022-07-30T20:07:20.028Z,3.03
2022-07-30T20:09:48.607Z,2.23
2022-07-30T20:12:17.273Z,1.67
2022-07-30T20:14:45.272Z,1.50
2022-07-30T20:17:13.378Z,1.50
2022-07-30T20:19:47.592Z,5.03
2022-07-30T20:22:32.285Z,2.30
2022-07-30T20:25:02.474Z,1.80
2022-07-30T20:27:35.712Z,1.70
2022-07-30T20:30:07.706Z,1.70
2022-07-30T20:32:53.612Z,1.60
2022-07-30T20:35:26.062Z,2.10
2022-07-30T20:37:56.409Z,1.77
2022-07-30T20:40:27.933Z,2.90
2022-07-30T20:42:56.246Z,2.00
2022-07-30T20:45:25.237Z,1.77
2022-07-30T20:47:56.599Z,2.93
2022-07-30T20:50:31.016Z,1.97
2022-07-30T20:53:00.913Z,2.50
2022-07-30T20:55:29.133Z,2.20
2022-07-30T20:58:12.502Z,2.80
2022-07-30T21:00:41.767Z,2.10
2022-07-30T21:03:13.749Z,2.57
2022-07-30T21:05:43.000Z,2.03
2022-07-30T21:08:12.782Z,2.50
2022-07-30T21:10:44.725Z,1.83
2022-07-30T21:13:14.020Z,1.77
2022-07-30T21:15:45.654Z,1.87
2022-07-30T21:18:30.664Z,2.60
2022-07-30T21:20:58.973Z,2.93
2022-07-30T21:23:30.112Z,1.87
2022-07-30T21:26:05.863Z,1.97
2022-07-30T21:28:38.654Z,1.67
2022-07-30T21:31:08.247Z,2.40
2022-07-30T21:33:36.975Z,1.70
2022-07-30T21:36:10.741Z,2.40
2022-07-30T21:38:41.843Z,1.57
2022-07-30T21:41:14.151Z,1.97
2022-07-30T21:43:43.656Z,2.33
2022-07-30T21:46:12.091Z,1.70
2022-07-30T21:48:40.064Z,1.93
2022-07-30T21:51:09.485Z,2.20
2022-07-30T21:53:44.768Z,1.77
2022-07-30T21:56:18.557Z,2.33
2022-07-30T21:58:48.584Z,2.23
2022-07-30T22:01:21.684Z,1.60
2022-07-30T22:04:04.092Z,3.17
2022-07-30T22:06:37.745Z,2.00
2022-07-30T22:09:18.845Z,3.83
2022-07-30T22:11:57.333Z,1.60
2022-07-30T22:14:29.936Z,2.00
2022-07-30T22:17:00.425Z,3.20
2022-07-30T22:19:28.365Z,1.97
2022-07-30T22:21:56.327Z,2.53
2022-07-30T22:24:29.264Z,1.57
2022-07-30T22:27:01.139Z,2.20
2022-07-30T22:29:34.178Z,2.87
2022-07-30T22:32:04.115Z,1.87
2022-07-30T22:34:32.747Z,1.90
2022-07-30T22:37:00.705Z,2.20
2022-07-30T22:39:31.803Z,2.37
2022-07-30T22:42:18.304Z,2.10
2022-07-30T22:44:48.174Z,2.20
2022-07-30T22:50:05.117Z,2.10
2022-07-30T22:52:38.199Z,2.30
2022-07-30T22:55:10.164Z,2.77
2022-07-30T22:57:40.415Z,2.23
2022-07-30T23:00:12.858Z,1.70
2022-07-30T23:02:42.935Z,2.13
2022-07-30T23:05:11.902Z,3.57
2022-07-30T23:07:40.722Z,1.77
2022-07-30T23:10:12.315Z,2.53
2022-07-30T23:12:30.469Z,2.50
2022-07-30T23:12:51.656Z,2.47
2022-07-30T23:15:20.757Z,2.43
2022-07-30T23:17:49.277Z,2.50
2022-07-30T23:20:20.230Z,2.73
2022-07-30T23:22:48.451Z,2.30
2022-07-30T23:25:16.856Z,1.80
2022-07-30T23:27:46.638Z,2.20
2022-07-30T23:30:16.291Z,2.10
2022-07-30T23:32:44.362Z,2.03
2022-07-30T23:35:12.334Z,2.50
2022-07-30T23:37:48.895Z,2.83
2022-07-30T23:40:18.258Z,2.57
2022-07-30T23:42:46.465Z,2.27
2022-07-30T23:45:16.133Z,2.20
2022-07-30T23:48:00.616Z,3.27
2022-07-30T23:50:31.574Z,2.43
2022-07-30T23:52:59.576Z,2.60
2022-07-30T23:55:28.005Z,2.70
2022-07-30T23:57:56.647Z,2.30
